sensor_id;sensor_type;location;lat;lon;timestamp;P1;durP1;ratioP1;P2;durP2;ratioP2
40917;SDS011;26644;50.248;19.032;2022-10-18T00:02:29;39.15;;;17.90;;
40917;SDS011;26644;50.248;19.032;2022-10-18T00:05:31;33.38;;;16.80;;
40917;SDS011;26644;50.248;19.032;2022-10-18T00:08:34;32.47;;;14.88;;
40917;SDS011;26644;50.248;19.032;2022-10-18T00:11:36;20.33;;;11.60;;
40917;SDS011;26644;50.248;19.032;2022-10-18T00:14:39;40.53;;;16.50;;
40917;SDS011;26644;50.248;19.032;2022-10-18T00:17:40;21.80;;;11.52;;
40917;SDS011;26644;50.248;19.032;2022-10-18T00:20:42;23.75;;;11.45;;
40917;SDS011;26644;50.248;19.032;2022-10-18T00:23:46;21.33;;;10.65;;
40917;SDS011;26644;50.248;19.032;2022-10-18T00:26:49;17.63;;;10.10;;
40917;SDS011;26644;50.248;19.032;2022-10-18T00:29:51;15.90;;;9.95;;
40917;SDS011;26644;50.248;19.032;2022-10-18T00:32:53;18.88;;;9.70;;
40917;SDS011;26644;50.248;19.032;2022-10-18T00:35:55;18.73;;;9.77;;
40917;SDS011;26644;50.248;19.032;2022-10-18T00:39:02;18.48;;;9.77;;
40917;SDS011;26644;50.248;19.032;2022-10-18T00:42:06;16.30;;;9.13;;
40917;SDS011;26644;50.248;19.032;2022-10-18T00:45:15;13.20;;;8.60;;
40917;SDS011;26644;50.248;19.032;2022-10-18T00:48:20;14.73;;;9.35;;
40917;SDS011;26644;50.248;19.032;2022-10-18T00:51:24;14.07;;;7.82;;
40917;SDS011;26644;50.248;19.032;2022-10-18T00:54:31;14.00;;;7.78;;
40917;SDS011;26644;50.248;19.032;2022-10-18T00:57:35;18.55;;;8.10;;
40917;SDS011;26644;50.248;19.032;2022-10-18T01:00:37;17.48;;;8.60;;
40917;SDS011;26644;50.248;19.032;2022-10-18T01:03:40;13.15;;;7.72;;
40917;SDS011;26644;50.248;19.032;2022-10-18T01:06:45;16.05;;;8.38;;
40917;SDS011;26644;50.248;19.032;2022-10-18T01:09:55;13.45;;;8.00;;
40917;SDS011;26644;50.248;19.032;2022-10-18T01:13:04;15.32;;;7.93;;
40917;SDS011;26644;50.248;19.032;2022-10-18T01:16:18;14.70;;;7.45;;
40917;SDS011;26644;50.248;19.032;2022-10-18T01:23:14;11.27;;;7.35;;
40917;SDS011;26644;50.248;19.032;2022-10-18T01:26:29;13.50;;;7.43;;
40917;SDS011;26644;50.248;19.032;2022-10-18T01:29:47;12.55;;;7.20;;
40917;SDS011;26644;50.248;19.032;2022-10-18T01:33:04;14.50;;;8.07;;
40917;SDS011;26644;50.248;19.032;2022-10-18T01:36:16;15.05;;;8.63;;
40917;SDS011;26644;50.248;19.032;2022-10-18T01:39:22;10.85;;;7.10;;
40917;SDS011;26644;50.248;19.032;2022-10-18T01:42:26;12.05;;;8.25;;
40917;SDS011;26644;50.248;19.032;2022-10-18T01:45:28;14.90;;;8.05;;
40917;SDS011;26644;50.248;19.032;2022-10-18T01:48:33;12.82;;;8.00;;
40917;SDS011;26644;50.248;19.032;2022-10-18T01:51:37;16.00;;;8.40;;
40917;SDS011;26644;50.248;19.032;2022-10-18T01:54:40;13.20;;;8.23;;
40917;SDS011;26644;50.248;19.032;2022-10-18T01:57:57;11.52;;;8.23;;
40917;SDS011;26644;50.248;19.032;2022-10-18T02:01:07;15.77;;;8.18;;
40917;SDS011;26644;50.248;19.032;2022-10-18T02:04:21;18.80;;;8.95;;
40917;SDS011;26644;50.248;19.032;2022-10-18T02:07:31;17.00;;;8.52;;
40917;SDS011;26644;50.248;19.032;2022-10-18T02:10:38;17.83;;;9.10;;
40917;SDS011;26644;50.248;19.032;2022-10-18T02:13:43;17.00;;;8.93;;
40917;SDS011;26644;50.248;19.032;2022-10-18T02:16:49;19.73;;;9.10;;
40917;SDS011;26644;50.248;19.032;2022-10-18T02:19:54;17.35;;;9.43;;
40917;SDS011;26644;50.248;19.032;2022-10-18T02:22:57;15.05;;;9.00;;
40917;SDS011;26644;50.248;19.032;2022-10-18T02:26:02;18.65;;;10.15;;
40917;SDS011;26644;50.248;19.032;2022-10-18T02:29:04;19.02;;;10.35;;
40917;SDS011;26644;50.248;19.032;2022-10-18T02:32:08;18.92;;;10.25;;
40917;SDS011;26644;50.248;19.032;2022-10-18T02:35:18;18.17;;;10.85;;
40917;SDS011;26644;50.248;19.032;2022-10-18T02:38:24;16.27;;;9.40;;
40917;SDS011;26644;50.248;19.032;2022-10-18T02:41:29;18.52;;;10.48;;
40917;SDS011;26644;50.248;19.032;2022-10-18T02:44:32;15.02;;;9.43;;
40917;SDS011;26644;50.248;19.032;2022-10-18T02:47:34;19.38;;;9.65;;
40917;SDS011;26644;50.248;19.032;2022-10-18T02:50:37;18.20;;;9.63;;
40917;SDS011;26644;50.248;19.032;2022-10-18T02:53:39;18.38;;;10.02;;
40917;SDS011;26644;50.248;19.032;2022-10-18T02:56:41;12.90;;;9.13;;
40917;SDS011;26644;50.248;19.032;2022-10-18T02:59:42;17.50;;;8.45;;
40917;SDS011;26644;50.248;19.032;2022-10-18T03:02:44;16.45;;;8.50;;
40917;SDS011;26644;50.248;19.032;2022-10-18T03:05:48;12.27;;;7.85;;
40917;SDS011;26644;50.248;19.032;2022-10-18T03:08:50;14.38;;;8.20;;
40917;SDS011;26644;50.248;19.032;2022-10-18T03:11:52;14.73;;;8.40;;
40917;SDS011;26644;50.248;19.032;2022-10-18T03:14:54;14.05;;;8.45;;
40917;SDS011;26644;50.248;19.032;2022-10-18T03:17:56;13.55;;;7.60;;
40917;SDS011;26644;50.248;19.032;2022-10-18T03:20:59;15.77;;;7.75;;
40917;SDS011;26644;50.248;19.032;2022-10-18T03:24:05;12.88;;;7.97;;
40917;SDS011;26644;50.248;19.032;2022-10-18T03:27:07;16.70;;;7.60;;
40917;SDS011;26644;50.248;19.032;2022-10-18T03:30:09;13.50;;;7.43;;
40917;SDS011;26644;50.248;19.032;2022-10-18T03:33:12;15.23;;;8.10;;
40917;SDS011;26644;50.248;19.032;2022-10-18T03:36:16;13.77;;;7.60;;
40917;SDS011;26644;50.248;19.032;2022-10-18T03:39:17;11.98;;;7.95;;
40917;SDS011;26644;50.248;19.032;2022-10-18T03:42:19;12.30;;;7.03;;
40917;SDS011;26644;50.248;19.032;2022-10-18T03:45:21;16.05;;;7.80;;
40917;SDS011;26644;50.248;19.032;2022-10-18T03:48:23;12.77;;;7.88;;
40917;SDS011;26644;50.248;19.032;2022-10-18T03:51:26;13.98;;;7.25;;
40917;SDS011;26644;50.248;19.032;2022-10-18T03:54:28;15.38;;;7.80;;
40917;SDS011;26644;50.248;19.032;2022-10-18T03:57:30;11.32;;;6.88;;
40917;SDS011;26644;50.248;19.032;2022-10-18T04:00:32;16.67;;;8.43;;
40917;SDS011;26644;50.248;19.032;2022-10-18T04:03:33;12.20;;;7.80;;
40917;SDS011;26644;50.248;19.032;2022-10-18T04:06:37;15.70;;;7.97;;
40917;SDS011;26644;50.248;19.032;2022-10-18T04:09:38;13.80;;;7.55;;
40917;SDS011;26644;50.248;19.032;2022-10-18T04:12:40;14.45;;;7.13;;
40917;SDS011;26644;50.248;19.032;2022-10-18T04:15:42;18.60;;;8.25;;
40917;SDS011;26644;50.248;19.032;2022-10-18T04:18:44;11.85;;;7.07;;
40917;SDS011;26644;50.248;19.032;2022-10-18T04:21:47;12.85;;;7.68;;
40917;SDS011;26644;50.248;19.032;2022-10-18T04:24:49;11.90;;;6.85;;
40917;SDS011;26644;50.248;19.032;2022-10-18T04:27:52;12.68;;;7.60;;
40917;SDS011;26644;50.248;19.032;2022-10-18T04:30:54;17.83;;;7.50;;
40917;SDS011;26644;50.248;19.032;2022-10-18T04:33:57;13.10;;;7.68;;
40917;SDS011;26644;50.248;19.032;2022-10-18T04:37:00;19.30;;;8.80;;
40917;SDS011;26644;50.248;19.032;2022-10-18T04:40:02;17.10;;;8.07;;
40917;SDS011;26644;50.248;19.032;2022-10-18T04:43:04;15.13;;;8.50;;
40917;SDS011;26644;50.248;19.032;2022-10-18T04:46:06;14.93;;;9.10;;
40917;SDS011;26644;50.248;19.032;2022-10-18T04:49:08;14.88;;;8.27;;
40917;SDS011;26644;50.248;19.032;2022-10-18T04:52:11;16.83;;;8.15;;
40917;SDS011;26644;50.248;19.032;2022-10-18T04:55:13;12.63;;;7.70;;
40917;SDS011;26644;50.248;19.032;2022-10-18T04:58:15;18.45;;;9.60;;
40917;SDS011;26644;50.248;19.032;2022-10-18T05:01:17;16.27;;;8.90;;
40917;SDS011;26644;50.248;19.032;2022-10-18T05:04:19;13.23;;;8.48;;
40917;SDS011;26644;50.248;19.032;2022-10-18T05:07:22;16.40;;;9.05;;
40917;SDS011;26644;50.248;19.032;2022-10-18T05:10:24;15.60;;;9.40;;
40917;SDS011;26644;50.248;19.032;2022-10-18T05:13:26;16.77;;;9.40;;
40917;SDS011;26644;50.248;19.032;2022-10-18T05:16:28;15.05;;;8.93;;
40917;SDS011;26644;50.248;19.032;2022-10-18T05:19:31;13.52;;;8.60;;
40917;SDS011;26644;50.248;19.032;2022-10-18T05:22:34;17.08;;;9.13;;
40917;SDS011;26644;50.248;19.032;2022-10-18T05:25:36;20.58;;;9.48;;
40917;SDS011;26644;50.248;19.032;2022-10-18T05:28:39;14.48;;;8.63;;
40917;SDS011;26644;50.248;19.032;2022-10-18T05:31:41;15.73;;;8.77;;
40917;SDS011;26644;50.248;19.032;2022-10-18T05:34:43;21.08;;;9.02;;
40917;SDS011;26644;50.248;19.032;2022-10-18T05:37:46;17.88;;;8.98;;
40917;SDS011;26644;50.248;19.032;2022-10-18T05:40:48;14.98;;;9.23;;
40917;SDS011;26644;50.248;19.032;2022-10-18T05:43:49;20.38;;;9.27;;
40917;SDS011;26644;50.248;19.032;2022-10-18T05:46:51;15.18;;;8.75;;
40917;SDS011;26644;50.248;19.032;2022-10-18T05:49:53;17.10;;;9.25;;
40917;SDS011;26644;50.248;19.032;2022-10-18T05:52:56;20.13;;;8.80;;
40917;SDS011;26644;50.248;19.032;2022-10-18T05:55:58;16.55;;;8.75;;
40917;SDS011;26644;50.248;19.032;2022-10-18T05:59:01;17.70;;;9.63;;
40917;SDS011;26644;50.248;19.032;2022-10-18T06:02:04;13.75;;;9.15;;
40917;SDS011;26644;50.248;19.032;2022-10-18T06:05:06;20.52;;;9.75;;
40917;SDS011;26644;50.248;19.032;2022-10-18T06:08:09;16.60;;;9.25;;
40917;SDS011;26644;50.248;19.032;2022-10-18T06:11:12;16.45;;;8.80;;
40917;SDS011;26644;50.248;19.032;2022-10-18T06:14:15;14.90;;;9.02;;
40917;SDS011;26644;50.248;19.032;2022-10-18T06:17:17;12.95;;;8.73;;
40917;SDS011;26644;50.248;19.032;2022-10-18T06:20:19;15.93;;;8.93;;
40917;SDS011;26644;50.248;19.032;2022-10-18T06:23:22;16.67;;;8.70;;
40917;SDS011;26644;50.248;19.032;2022-10-18T06:26:24;16.65;;;8.57;;
40917;SDS011;26644;50.248;19.032;2022-10-18T06:29:27;13.50;;;8.52;;
40917;SDS011;26644;50.248;19.032;2022-10-18T06:32:29;15.88;;;8.43;;
40917;SDS011;26644;50.248;19.032;2022-10-18T06:35:31;17.88;;;9.23;;
40917;SDS011;26644;50.248;19.032;2022-10-18T06:38:35;16.70;;;9.40;;
40917;SDS011;26644;50.248;19.032;2022-10-18T06:41:37;15.90;;;9.50;;
40917;SDS011;26644;50.248;19.032;2022-10-18T06:44:52;16.05;;;8.60;;
40917;SDS011;26644;50.248;19.032;2022-10-18T06:47:54;16.70;;;8.32;;
40917;SDS011;26644;50.248;19.032;2022-10-18T06:50:58;14.55;;;8.85;;
40917;SDS011;26644;50.248;19.032;2022-10-18T06:54:02;18.25;;;9.35;;
40917;SDS011;26644;50.248;19.032;2022-10-18T06:57:04;32.20;;;10.02;;
40917;SDS011;26644;50.248;19.032;2022-10-18T07:00:07;19.52;;;9.55;;
40917;SDS011;26644;50.248;19.032;2022-10-18T07:03:09;16.45;;;9.38;;
40917;SDS011;26644;50.248;19.032;2022-10-18T07:06:12;20.40;;;8.65;;
40917;SDS011;26644;50.248;19.032;2022-10-18T07:09:16;16.77;;;9.32;;
40917;SDS011;26644;50.248;19.032;2022-10-18T07:12:18;17.13;;;7.95;;
40917;SDS011;26644;50.248;19.032;2022-10-18T07:15:20;15.30;;;7.97;;
40917;SDS011;26644;50.248;19.032;2022-10-18T07:18:23;28.15;;;9.30;;
40917;SDS011;26644;50.248;19.032;2022-10-18T07:21:25;12.93;;;7.70;;
40917;SDS011;26644;50.248;19.032;2022-10-18T07:24:28;15.30;;;7.30;;
40917;SDS011;26644;50.248;19.032;2022-10-18T07:27:30;19.70;;;8.25;;
40917;SDS011;26644;50.248;19.032;2022-10-18T07:30:32;16.90;;;7.93;;
40917;SDS011;26644;50.248;19.032;2022-10-18T07:33:34;17.80;;;9.10;;
40917;SDS011;26644;50.248;19.032;2022-10-18T07:36:38;15.60;;;7.90;;
40917;SDS011;26644;50.248;19.032;2022-10-18T07:39:42;13.80;;;6.97;;
40917;SDS011;26644;50.248;19.032;2022-10-18T07:42:43;15.02;;;6.80;;
40917;SDS011;26644;50.248;19.032;2022-10-18T07:45:50;39.22;;;8.85;;
40917;SDS011;26644;50.248;19.032;2022-10-18T07:48:53;29.73;;;7.45;;
40917;SDS011;26644;50.248;19.032;2022-10-18T07:51:55;17.90;;;7.00;;
40917;SDS011;26644;50.248;19.032;2022-10-18T07:54:58;12.50;;;6.65;;
40917;SDS011;26644;50.248;19.032;2022-10-18T07:58:00;14.98;;;6.97;;
40917;SDS011;26644;50.248;19.032;2022-10-18T08:01:02;19.60;;;7.35;;
40917;SDS011;26644;50.248;19.032;2022-10-18T08:04:04;15.38;;;6.38;;
40917;SDS011;26644;50.248;19.032;2022-10-18T08:07:06;16.25;;;6.28;;
40917;SDS011;26644;50.248;19.032;2022-10-18T08:10:09;11.10;;;5.70;;
40917;SDS011;26644;50.248;19.032;2022-10-18T08:13:11;16.70;;;6.18;;
40917;SDS011;26644;50.248;19.032;2022-10-18T08:16:13;9.73;;;5.55;;
40917;SDS011;26644;50.248;19.032;2022-10-18T08:19:17;11.00;;;5.72;;
40917;SDS011;26644;50.248;19.032;2022-10-18T08:22:19;14.05;;;6.03;;
40917;SDS011;26644;50.248;19.032;2022-10-18T08:25:23;15.27;;;5.97;;
40917;SDS011;26644;50.248;19.032;2022-10-18T08:28:25;8.20;;;5.43;;
40917;SDS011;26644;50.248;19.032;2022-10-18T08:31:27;9.07;;;5.95;;
40917;SDS011;26644;50.248;19.032;2022-10-18T08:34:29;9.27;;;5.75;;
40917;SDS011;26644;50.248;19.032;2022-10-18T08:37:31;14.00;;;6.35;;
40917;SDS011;26644;50.248;19.032;2022-10-18T08:40:34;10.85;;;4.65;;
40917;SDS011;26644;50.248;19.032;2022-10-18T08:43:37;11.60;;;5.10;;
40917;SDS011;26644;50.248;19.032;2022-10-18T08:46:44;8.43;;;5.15;;
40917;SDS011;26644;50.248;19.032;2022-10-18T08:49:48;7.97;;;5.32;;
40917;SDS011;26644;50.248;19.032;2022-10-18T08:52:55;10.05;;;5.65;;
40917;SDS011;26644;50.248;19.032;2022-10-18T08:56:04;13.18;;;5.13;;
40917;SDS011;26644;50.248;19.032;2022-10-18T08:59:10;10.10;;;4.70;;
40917;SDS011;26644;50.248;19.032;2022-10-18T09:02:19;13.18;;;5.38;;
40917;SDS011;26644;50.248;19.032;2022-10-18T09:05:33;8.65;;;5.28;;
40917;SDS011;26644;50.248;19.032;2022-10-18T09:08:44;11.23;;;5.68;;
40917;SDS011;26644;50.248;19.032;2022-10-18T09:11:57;10.57;;;5.25;;
40917;SDS011;26644;50.248;19.032;2022-10-18T09:15:11;11.63;;;5.60;;
40917;SDS011;26644;50.248;19.032;2022-10-18T09:18:25;18.95;;;5.63;;
40917;SDS011;26644;50.248;19.032;2022-10-18T09:21:45;7.22;;;4.38;;
40917;SDS011;26644;50.248;19.032;2022-10-18T09:24:53;11.38;;;4.95;;
40917;SDS011;26644;50.248;19.032;2022-10-18T09:28:12;10.35;;;5.35;;
40917;SDS011;26644;50.248;19.032;2022-10-18T09:31:17;15.20;;;5.13;;
40917;SDS011;26644;50.248;19.032;2022-10-18T09:34:27;14.90;;;5.13;;
40917;SDS011;26644;50.248;19.032;2022-10-18T09:37:35;9.60;;;5.03;;
40917;SDS011;26644;50.248;19.032;2022-10-18T09:40:37;13.65;;;5.45;;
40917;SDS011;26644;50.248;19.032;2022-10-18T09:43:51;7.75;;;4.85;;
40917;SDS011;26644;50.248;19.032;2022-10-18T09:46:58;10.52;;;4.70;;
40917;SDS011;26644;50.248;19.032;2022-10-18T09:50:02;13.02;;;5.38;;
40917;SDS011;26644;50.248;19.032;2022-10-18T09:53:16;14.02;;;5.30;;
40917;SDS011;26644;50.248;19.032;2022-10-18T09:56:23;8.68;;;4.97;;
40917;SDS011;26644;50.248;19.032;2022-10-18T09:59:33;10.77;;;5.63;;
40917;SDS011;26644;50.248;19.032;2022-10-18T10:02:37;11.95;;;5.68;;
40917;SDS011;26644;50.248;19.032;2022-10-18T10:05:39;11.15;;;6.65;;
40917;SDS011;26644;50.248;19.032;2022-10-18T10:08:42;16.90;;;5.85;;
40917;SDS011;26644;50.248;19.032;2022-10-18T10:11:49;12.13;;;7.13;;
40917;SDS011;26644;50.248;19.032;2022-10-18T10:14:53;10.93;;;5.28;;
40917;SDS011;26644;50.248;19.032;2022-10-18T10:17:55;7.28;;;4.80;;
40917;SDS011;26644;50.248;19.032;2022-10-18T10:20:59;17.35;;;5.72;;
40917;SDS011;26644;50.248;19.032;2022-10-18T10:24:05;7.70;;;4.78;;
40917;SDS011;26644;50.248;19.032;2022-10-18T10:27:12;13.88;;;5.82;;
40917;SDS011;26644;50.248;19.032;2022-10-18T10:33:30;12.32;;;6.50;;
40917;SDS011;26644;50.248;19.032;2022-10-18T10:36:34;14.43;;;5.20;;
40917;SDS011;26644;50.248;19.032;2022-10-18T10:39:49;15.73;;;6.57;;
40917;SDS011;26644;50.248;19.032;2022-10-18T10:43:06;12.85;;;5.78;;
40917;SDS011;26644;50.248;19.032;2022-10-18T10:46:18;16.48;;;6.07;;
40917;SDS011;26644;50.248;19.032;2022-10-18T10:49:23;9.27;;;5.75;;
40917;SDS011;26644;50.248;19.032;2022-10-18T10:52:26;8.05;;;5.00;;
40917;SDS011;26644;50.248;19.032;2022-10-18T10:55:32;11.27;;;5.30;;
40917;SDS011;26644;50.248;19.032;2022-10-18T10:58:37;13.32;;;6.15;;
40917;SDS011;26644;50.248;19.032;2022-10-18T11:01:42;10.20;;;5.05;;
40917;SDS011;26644;50.248;19.032;2022-10-18T11:04:45;12.25;;;4.80;;
40917;SDS011;26644;50.248;19.032;2022-10-18T11:07:48;11.25;;;4.75;;
40917;SDS011;26644;50.248;19.032;2022-10-18T11:10:55;12.27;;;5.05;;
40917;SDS011;26644;50.248;19.032;2022-10-18T11:14:04;11.10;;;5.22;;
40917;SDS011;26644;50.248;19.032;2022-10-18T11:17:18;9.30;;;4.65;;
40917;SDS011;26644;50.248;19.032;2022-10-18T11:20:26;11.27;;;5.07;;
40917;SDS011;26644;50.248;19.032;2022-10-18T11:23:33;13.77;;;4.93;;
40917;SDS011;26644;50.248;19.032;2022-10-18T11:26:38;8.50;;;4.68;;
40917;SDS011;26644;50.248;19.032;2022-10-18T11:33:24;9.40;;;4.55;;
40917;SDS011;26644;50.248;19.032;2022-10-18T11:36:37;8.77;;;4.30;;
40917;SDS011;26644;50.248;19.032;2022-10-18T11:39:48;8.65;;;4.70;;
40917;SDS011;26644;50.248;19.032;2022-10-18T11:42:57;8.73;;;5.15;;
40917;SDS011;26644;50.248;19.032;2022-10-18T11:46:09;7.85;;;5.00;;
40917;SDS011;26644;50.248;19.032;2022-10-18T11:49:25;13.90;;;5.88;;
40917;SDS011;26644;50.248;19.032;2022-10-18T11:52:41;9.60;;;5.10;;
40917;SDS011;26644;50.248;19.032;2022-10-18T11:55:58;8.32;;;4.65;;
40917;SDS011;26644;50.248;19.032;2022-10-18T11:59:13;7.70;;;4.30;;
40917;SDS011;26644;50.248;19.032;2022-10-18T12:02:32;10.93;;;6.90;;
40917;SDS011;26644;50.248;19.032;2022-10-18T12:05:49;10.95;;;5.30;;
40917;SDS011;26644;50.248;19.032;2022-10-18T12:08:53;10.23;;;5.13;;
40917;SDS011;26644;50.248;19.032;2022-10-18T12:12:00;9.10;;;4.68;;
40917;SDS011;26644;50.248;19.032;2022-10-18T12:15:04;12.30;;;5.97;;
40917;SDS011;26644;50.248;19.032;2022-10-18T12:18:13;13.68;;;5.40;;
40917;SDS011;26644;50.248;19.032;2022-10-18T12:21:20;14.07;;;4.90;;
40917;SDS011;26644;50.248;19.032;2022-10-18T12:24:24;20.52;;;5.82;;
40917;SDS011;26644;50.248;19.032;2022-10-18T12:27:31;9.77;;;5.03;;
40917;SDS011;26644;50.248;19.032;2022-10-18T12:30:41;12.13;;;4.68;;
40917;SDS011;26644;50.248;19.032;2022-10-18T12:33:49;11.00;;;5.50;;
40917;SDS011;26644;50.248;19.032;2022-10-18T12:40:38;8.07;;;4.65;;
40917;SDS011;26644;50.248;19.032;2022-10-18T12:43:48;7.97;;;5.15;;
40917;SDS011;26644;50.248;19.032;2022-10-18T12:46:52;12.20;;;5.25;;
40917;SDS011;26644;50.248;19.032;2022-10-18T12:49:56;9.65;;;5.25;;
40917;SDS011;26644;50.248;19.032;2022-10-18T12:53:06;13.45;;;5.40;;
40917;SDS011;26644;50.248;19.032;2022-10-18T12:56:33;11.50;;;6.05;;
40917;SDS011;26644;50.248;19.032;2022-10-18T12:59:40;17.98;;;6.40;;
40917;SDS011;26644;50.248;19.032;2022-10-18T13:02:42;16.98;;;5.70;;
40917;SDS011;26644;50.248;19.032;2022-10-18T13:05:52;14.05;;;6.50;;
40917;SDS011;26644;50.248;19.032;2022-10-18T13:12:43;10.73;;;6.15;;
40917;SDS011;26644;50.248;19.032;2022-10-18T13:15:57;10.98;;;5.38;;
40917;SDS011;26644;50.248;19.032;2022-10-18T13:19:16;11.18;;;6.20;;
40917;SDS011;26644;50.248;19.032;2022-10-18T13:22:25;10.43;;;6.30;;
40917;SDS011;26644;50.248;19.032;2022-10-18T13:25:44;13.35;;;5.40;;
40917;SDS011;26644;50.248;19.032;2022-10-18T13:28:55;14.55;;;6.43;;
40917;SDS011;26644;50.248;19.032;2022-10-18T13:32:06;14.68;;;6.05;;
40917;SDS011;26644;50.248;19.032;2022-10-18T13:35:47;16.75;;;6.30;;
40917;SDS011;26644;50.248;19.032;2022-10-18T13:38:57;11.55;;;5.57;;
40917;SDS011;26644;50.248;19.032;2022-10-18T13:42:26;12.23;;;6.10;;
40917;SDS011;26644;50.248;19.032;2022-10-18T13:45:51;12.88;;;6.10;;
40917;SDS011;26644;50.248;19.032;2022-10-18T13:48:56;16.77;;;7.20;;
40917;SDS011;26644;50.248;19.032;2022-10-18T13:52:00;15.93;;;5.90;;
40917;SDS011;26644;50.248;19.032;2022-10-18T13:55:23;16.90;;;6.40;;
40917;SDS011;26644;50.248;19.032;2022-10-18T13:58:38;10.82;;;5.88;;
40917;SDS011;26644;50.248;19.032;2022-10-18T14:01:53;14.88;;;6.38;;
40917;SDS011;26644;50.248;19.032;2022-10-18T14:05:11;10.80;;;5.93;;
40917;SDS011;26644;50.248;19.032;2022-10-18T14:08:21;14.63;;;6.63;;
40917;SDS011;26644;50.248;19.032;2022-10-18T14:11:29;14.50;;;6.70;;
40917;SDS011;26644;50.248;19.032;2022-10-18T14:14:36;14.65;;;6.72;;
40917;SDS011;26644;50.248;19.032;2022-10-18T14:17:43;18.63;;;6.43;;
40917;SDS011;26644;50.248;19.032;2022-10-18T14:20:49;12.07;;;6.88;;
40917;SDS011;26644;50.248;19.032;2022-10-18T14:23:55;12.88;;;6.57;;
40917;SDS011;26644;50.248;19.032;2022-10-18T14:27:15;16.63;;;7.35;;
40917;SDS011;26644;50.248;19.032;2022-10-18T14:30:20;15.18;;;6.63;;
40917;SDS011;26644;50.248;19.032;2022-10-18T14:33:23;11.80;;;7.07;;
40917;SDS011;26644;50.248;19.032;2022-10-18T14:36:28;18.05;;;6.95;;
40917;SDS011;26644;50.248;19.032;2022-10-18T14:39:37;13.38;;;6.70;;
40917;SDS011;26644;50.248;19.032;2022-10-18T14:42:39;12.98;;;7.07;;
40917;SDS011;26644;50.248;19.032;2022-10-18T14:45:50;14.90;;;7.68;;
40917;SDS011;26644;50.248;19.032;2022-10-18T14:48:55;14.90;;;8.05;;
40917;SDS011;26644;50.248;19.032;2022-10-18T14:51:59;15.23;;;6.72;;
40917;SDS011;26644;50.248;19.032;2022-10-18T14:55:01;15.52;;;7.03;;
40917;SDS011;26644;50.248;19.032;2022-10-18T14:58:06;15.50;;;6.65;;
40917;SDS011;26644;50.248;19.032;2022-10-18T15:01:16;17.42;;;7.57;;
40917;SDS011;26644;50.248;19.032;2022-10-18T15:04:19;17.67;;;7.13;;
40917;SDS011;26644;50.248;19.032;2022-10-18T15:07:22;14.90;;;7.35;;
40917;SDS011;26644;50.248;19.032;2022-10-18T15:10:26;16.77;;;7.35;;
40917;SDS011;26644;50.248;19.032;2022-10-18T15:13:30;14.63;;;7.85;;
40917;SDS011;26644;50.248;19.032;2022-10-18T15:16:34;14.15;;;6.68;;
40917;SDS011;26644;50.248;19.032;2022-10-18T15:19:38;13.55;;;7.63;;
40917;SDS011;26644;50.248;19.032;2022-10-18T15:22:53;17.20;;;7.55;;
40917;SDS011;26644;50.248;19.032;2022-10-18T15:26:18;15.23;;;7.57;;
40917;SDS011;26644;50.248;19.032;2022-10-18T15:29:23;16.52;;;7.78;;
40917;SDS011;26644;50.248;19.032;2022-10-18T15:32:27;17.65;;;8.00;;
40917;SDS011;26644;50.248;19.032;2022-10-18T15:35:31;13.10;;;6.95;;
40917;SDS011;26644;50.248;19.032;2022-10-18T15:38:34;16.05;;;8.00;;
40917;SDS011;26644;50.248;19.032;2022-10-18T15:41:37;13.10;;;7.65;;
40917;SDS011;26644;50.248;19.032;2022-10-18T15:44:45;15.05;;;7.28;;
40917;SDS011;26644;50.248;19.032;2022-10-18T15:47:57;18.70;;;8.45;;
40917;SDS011;26644;50.248;19.032;2022-10-18T15:51:18;23.05;;;7.90;;
40917;SDS011;26644;50.248;19.032;2022-10-18T15:54:47;13.57;;;8.43;;
40917;SDS011;26644;50.248;19.032;2022-10-18T15:57:49;14.57;;;8.07;;
40917;SDS011;26644;50.248;19.032;2022-10-18T16:00:52;17.65;;;7.55;;
40917;SDS011;26644;50.248;19.032;2022-10-18T16:03:57;15.38;;;8.20;;
40917;SDS011;26644;50.248;19.032;2022-10-18T16:07:01;16.15;;;9.18;;
40917;SDS011;26644;50.248;19.032;2022-10-18T16:10:06;18.95;;;9.50;;
40917;SDS011;26644;50.248;19.032;2022-10-18T16:13:13;21.25;;;11.10;;
40917;SDS011;26644;50.248;19.032;2022-10-18T16:16:16;19.67;;;10.40;;
40917;SDS011;26644;50.248;19.032;2022-10-18T16:19:22;23.52;;;10.48;;
40917;SDS011;26644;50.248;19.032;2022-10-18T16:22:23;19.60;;;10.30;;
40917;SDS011;26644;50.248;19.032;2022-10-18T16:25:25;18.08;;;10.18;;
40917;SDS011;26644;50.248;19.032;2022-10-18T16:28:27;18.70;;;9.40;;
40917;SDS011;26644;50.248;19.032;2022-10-18T16:31:32;16.15;;;9.40;;
40917;SDS011;26644;50.248;19.032;2022-10-18T16:34:35;19.13;;;9.75;;
40917;SDS011;26644;50.248;19.032;2022-10-18T16:37:37;17.05;;;10.30;;
40917;SDS011;26644;50.248;19.032;2022-10-18T16:40:39;16.75;;;8.95;;
40917;SDS011;26644;50.248;19.032;2022-10-18T16:43:42;19.65;;;10.05;;
40917;SDS011;26644;50.248;19.032;2022-10-18T16:46:45;16.85;;;9.30;;
40917;SDS011;26644;50.248;19.032;2022-10-18T16:49:48;16.10;;;9.73;;
40917;SDS011;26644;50.248;19.032;2022-10-18T16:52:50;14.32;;;9.07;;
40917;SDS011;26644;50.248;19.032;2022-10-18T16:55:52;18.98;;;10.30;;
40917;SDS011;26644;50.248;19.032;2022-10-18T16:58:56;15.00;;;9.18;;
40917;SDS011;26644;50.248;19.032;2022-10-18T17:01:59;18.23;;;10.05;;
40917;SDS011;26644;50.248;19.032;2022-10-18T17:05:06;18.33;;;9.32;;
40917;SDS011;26644;50.248;19.032;2022-10-18T17:08:11;18.10;;;9.43;;
40917;SDS011;26644;50.248;19.032;2022-10-18T17:11:18;23.13;;;10.27;;
40917;SDS011;26644;50.248;19.032;2022-10-18T17:14:20;15.90;;;9.02;;
40917;SDS011;26644;50.248;19.032;2022-10-18T17:17:22;18.95;;;9.68;;
40917;SDS011;26644;50.248;19.032;2022-10-18T17:20:26;15.60;;;9.63;;
40917;SDS011;26644;50.248;19.032;2022-10-18T17:23:28;13.77;;;9.40;;
40917;SDS011;26644;50.248;19.032;2022-10-18T17:26:30;17.50;;;10.70;;
40917;SDS011;26644;50.248;19.032;2022-10-18T17:29:32;15.98;;;9.63;;
40917;SDS011;26644;50.248;19.032;2022-10-18T17:32:34;19.20;;;10.15;;
40917;SDS011;26644;50.248;19.032;2022-10-18T17:35:37;16.02;;;10.88;;
40917;SDS011;26644;50.248;19.032;2022-10-18T17:38:39;16.98;;;11.18;;
40917;SDS011;26644;50.248;19.032;2022-10-18T17:41:41;23.80;;;11.07;;
40917;SDS011;26644;50.248;19.032;2022-10-18T17:44:43;23.13;;;10.88;;
40917;SDS011;26644;50.248;19.032;2022-10-18T17:47:45;17.55;;;10.60;;
40917;SDS011;26644;50.248;19.032;2022-10-18T17:50:48;14.70;;;11.07;;
40917;SDS011;26644;50.248;19.032;2022-10-18T17:53:50;21.27;;;10.80;;
40917;SDS011;26644;50.248;19.032;2022-10-18T17:56:52;18.42;;;11.25;;
40917;SDS011;26644;50.248;19.032;2022-10-18T17:59:54;20.67;;;12.20;;
40917;SDS011;26644;50.248;19.032;2022-10-18T18:02:58;18.08;;;11.77;;
40917;SDS011;26644;50.248;19.032;2022-10-18T18:06:11;22.10;;;12.43;;
40917;SDS011;26644;50.248;19.032;2022-10-18T18:09:14;24.02;;;12.27;;
40917;SDS011;26644;50.248;19.032;2022-10-18T18:12:17;23.88;;;12.85;;
40917;SDS011;26644;50.248;19.032;2022-10-18T18:15:19;24.52;;;12.65;;
40917;SDS011;26644;50.248;19.032;2022-10-18T18:18:21;26.33;;;12.38;;
40917;SDS011;26644;50.248;19.032;2022-10-18T18:21:24;24.75;;;13.95;;
40917;SDS011;26644;50.248;19.032;2022-10-18T18:24:27;25.48;;;14.25;;